createdAt,value
2022-10-18T00:00:01.815Z,99842.00
2022-10-18T00:00:15.322Z,99839.47
2022-10-18T00:00:48.447Z,99834.19
2022-10-18T00:01:01.495Z,99844.50
2022-10-18T00:01:14.516Z,99840.28
2022-10-18T00:01:47.532Z,99840.16
2022-10-18T00:02:00.810Z,99844.34
2022-10-18T00:21:41.634Z,99827.94
2022-10-18T00:21:55.108Z,99833.25
2022-10-18T00:22:08.457Z,99833.25
2022-10-18T00:22:21.566Z,99824.25
2022-10-18T00:22:39.468Z,99835.66
2022-10-18T00:22:53.387Z,99832.13
2022-10-18T00:23:08.033Z,99824.25
2022-10-18T00:23:41.465Z,99835.84
2022-10-18T00:23:54.606Z,99826.97
2022-10-18T00:24:07.626Z,99829.56
2022-10-18T00:24:20.760Z,99828.63
2022-10-18T00:24:33.592Z,99828.72
2022-10-18T00:24:46.606Z,99826.16
2022-10-18T00:25:15.586Z,99832.28
2022-10-18T00:25:32.719Z,99825.19
2022-10-18T00:25:45.844Z,99823.59
2022-10-18T00:26:04.909Z,99823.59
2022-10-18T00:26:26.665Z,99826.97
2022-10-18T00:26:56.423Z,99823.31
2022-10-18T00:27:09.693Z,99826.72
2022-10-18T00:27:42.705Z,99825.19
2022-10-18T00:27:55.643Z,99822.72
2022-10-18T00:28:12.406Z,99828.94
2022-10-18T00:28:25.720Z,99823.72
2022-10-18T00:29:00.181Z,99817.78
2022-10-18T00:29:33.003Z,99826.25
2022-10-18T00:30:06.167Z,99821.94
2022-10-18T00:30:19.315Z,99824.56
2022-10-18T00:30:32.190Z,99814.69
2022-10-18T00:30:45.195Z,99825.22
2022-10-18T00:31:08.887Z,99824.16
2022-10-18T00:31:28.336Z,99819.63
2022-10-18T00:31:45.155Z,99823.91
2022-10-18T00:31:58.973Z,99824.06
2022-10-18T00:32:31.971Z,99817.78
2022-10-18T00:32:45.327Z,99827.69
2022-10-18T00:32:59.135Z,99822.44
2022-10-18T00:33:31.895Z,99813.69
2022-10-18T00:33:46.856Z,99821.41
2022-10-18T00:34:19.653Z,99819.66
2022-10-18T00:34:32.992Z,99825.84
2022-10-18T00:34:45.903Z,99820.44
2022-10-18T00:34:59.560Z,99823.09
2022-10-18T00:35:28.365Z,99815.19
2022-10-18T00:36:01.101Z,99815.22
2022-10-18T00:36:37.003Z,99822.38
2022-10-18T00:37:09.747Z,99812.69
2022-10-18T00:37:25.202Z,99820.16
2022-10-18T00:37:38.364Z,99817.41
2022-10-18T00:38:08.394Z,99820.94
2022-10-18T00:38:42.252Z,99812.09
2022-10-18T00:38:55.395Z,99814.75
2022-10-18T00:39:09.597Z,99817.41
2022-10-18T00:39:22.818Z,99818.37
2022-10-18T00:39:55.586Z,99821.84
2022-10-18T00:40:09.173Z,99814.69
2022-10-18T00:40:22.508Z,99815.44
2022-10-18T00:40:37.455Z,99820.78
2022-10-18T00:40:50.529Z,99814.75
2022-10-18T00:41:04.303Z,99810.97
2022-10-18T00:41:19.424Z,99818.84
2022-10-18T00:41:52.758Z,99810.69
2022-10-18T00:42:05.984Z,99816.88
2022-10-18T00:42:38.716Z,99818.66
2022-10-18T00:42:51.890Z,99807.25
2022-10-18T00:43:04.790Z,99816.03
2022-10-18T00:43:17.615Z,99816.03
2022-10-18T00:44:03.751Z,99816.03
2022-10-18T00:44:18.536Z,99814.12
2022-10-18T00:44:31.988Z,99814.06
2022-10-18T00:44:45.183Z,99816.78
2022-10-18T00:45:24.264Z,99821.25
2022-10-18T00:45:37.475Z,99811.06
2022-10-18T00:45:52.285Z,99819.09
2022-10-18T00:46:05.305Z,99820.88
2022-10-18T00:46:28.056Z,99814.59
2022-10-18T00:46:42.558Z,99811.94
2022-10-18T00:47:00.862Z,99813.69
2022-10-18T00:47:14.669Z,99816.47
2022-10-18T00:47:27.553Z,99814.03
2022-10-18T00:47:43.872Z,99812.34
2022-10-18T00:48:02.490Z,99807.72
2022-10-18T00:48:19.847Z,99812.81
2022-10-18T00:49:11.983Z,99811.06
2022-10-18T00:49:32.351Z,99811.31
2022-10-18T00:49:50.831Z,99805.09
2022-10-18T00:50:05.081Z,99810.31
2022-10-18T00:50:38.912Z,99810.50
2022-10-18T00:50:54.293Z,99815.41
2022-10-18T00:51:08.185Z,99811.75
2022-10-18T00:51:21.322Z,99817.87
2022-10-18T00:51:38.612Z,99814.31
2022-10-18T00:52:08.283Z,99810.06
2022-10-18T00:53:09.213Z,99809.28
2022-10-18T00:53:22.896Z,99812.47
2022-10-18T00:53:55.634Z,99812.44
2022-10-18T00:54:13.053Z,99810.84
2022-10-18T00:54:46.865Z,99808.19
2022-10-18T00:55:00.903Z,99808.75
2022-10-18T00:55:13.908Z,99807.12
2022-10-18T00:55:43.186Z,99809.06
2022-10-18T00:55:56.059Z,99802.19
2022-10-18T00:56:29.205Z,99810.37
2022-10-18T00:56:44.942Z,99812.13
2022-10-18T00:56:57.768Z,99807.59
2022-10-18T00:57:10.840Z,99810.97
2022-10-18T00:57:43.940Z,99806.56
2022-10-18T00:57:57.311Z,99804.78
2022-10-18T00:58:12.229Z,99803.00
2022-10-18T00:58:25.488Z,99799.50
2022-10-18T00:58:38.294Z,99798.56
2022-10-18T00:58:51.473Z,99806.44
2022-10-18T00:59:04.504Z,99803.69
2022-10-18T01:25:34.498Z,99781.81
2022-10-18T01:25:57.512Z,99776.56
2022-10-18T01:26:51.560Z,99780.09
2022-10-18T01:27:19.398Z,99776.66
2022-10-18T01:27:47.568Z,99777.50
2022-10-18T01:28:08.364Z,99779.28
2022-10-18T01:28:54.063Z,99780.22
2022-10-18T01:29:25.855Z,99781.25
2022-10-18T01:30:20.076Z,99778.53
2022-10-18T01:30:51.692Z,99782.16
2022-10-18T01:31:10.888Z,99777.44
2022-10-18T01:31:30.593Z,99784.03
2022-10-18T01:31:46.789Z,99775.97
2022-10-18T01:32:07.026Z,99775.16
2022-10-18T01:32:21.971Z,99775.25
2022-10-18T01:32:43.001Z,99780.34
2022-10-18T01:34:05.898Z,99777.69
2022-10-18T01:34:20.707Z,99778.44
2022-10-18T01:34:36.283Z,99776.50
2022-10-18T01:34:50.039Z,99771.09
2022-10-18T01:35:07.587Z,99773.81
2022-10-18T01:35:23.643Z,99772.31
2022-10-18T01:35:39.756Z,99773.37
2022-10-18T01:35:59.233Z,99776.72
2022-10-18T01:36:33.811Z,99769.56
2022-10-18T01:36:51.189Z,99773.00
2022-10-18T01:37:05.621Z,99774.66
2022-10-18T01:37:18.823Z,99774.63
2022-10-18T01:37:33.174Z,99766.75
2022-10-18T02:12:53.225Z,99751.66
2022-10-18T02:13:06.441Z,99748.91
2022-10-18T02:13:20.247Z,99744.50
2022-10-18T02:13:37.362Z,99747.06
2022-10-18T02:13:58.048Z,99745.38
2022-10-18T02:14:12.540Z,99748.41
2022-10-18T02:14:29.285Z,99748.53
2022-10-18T02:14:44.394Z,99748.41
2022-10-18T02:15:01.934Z,99744.69
2022-10-18T02:15:36.342Z,99744.50
2022-10-18T02:15:55.323Z,99748.56
2022-10-18T02:16:18.601Z,99744.97
2022-10-18T02:16:37.823Z,99741.37
2022-10-18T02:16:53.628Z,99745.81
2022-10-18T02:17:50.696Z,99748.34
2022-10-18T02:18:06.349Z,99742.87
2022-10-18T02:18:45.227Z,99745.47
2022-10-18T02:19:30.983Z,99743.78
2022-10-18T02:19:46.580Z,99744.63
2022-10-18T02:20:01.243Z,99737.50
2022-10-18T02:20:18.468Z,99743.69
2022-10-18T02:20:32.740Z,99743.63
2022-10-18T02:20:45.735Z,99745.38
2022-10-18T02:20:58.812Z,99745.38
2022-10-18T02:21:13.657Z,99740.13
2022-10-18T02:21:26.486Z,99745.41
2022-10-18T02:21:59.210Z,99739.28
2022-10-18T02:22:19.976Z,99748.06
2022-10-18T02:22:33.571Z,99745.47
2022-10-18T02:22:47.105Z,99742.06
2022-10-18T02:23:00.442Z,99742.94
2022-10-18T02:23:13.542Z,99743.78
2022-10-18T02:23:26.721Z,99741.06
2022-10-18T02:23:39.946Z,99741.91
2022-10-18T02:23:56.685Z,99744.50
2022-10-18T02:24:10.416Z,99740.03
2022-10-18T02:24:42.780Z,99743.63
2022-10-18T02:24:56.835Z,99745.38
2022-10-18T02:25:30.649Z,99739.47
2022-10-18T02:25:43.929Z,99740.25
2022-10-18T02:25:57.068Z,99745.53
2022-10-18T02:26:09.892Z,99744.66
2022-10-18T02:26:42.801Z,99744.56
2022-10-18T02:27:15.965Z,99746.19
2022-10-18T02:27:29.381Z,99746.06
2022-10-18T02:27:42.677Z,99744.28
2022-10-18T02:27:55.688Z,99746.09
2022-10-18T02:28:08.842Z,99743.53
2022-10-18T02:28:21.978Z,99744.38
2022-10-18T02:28:36.004Z,99745.28
2022-10-18T02:28:49.284Z,99743.44
2022-10-18T02:29:02.160Z,99745.19
2022-10-18T02:29:15.150Z,99747.94
2022-10-18T02:29:28.715Z,99745.19
2022-10-18T02:29:43.480Z,99752.28
2022-10-18T02:30:00.908Z,99747.81
2022-10-18T02:30:15.629Z,99745.03
2022-10-18T02:31:14.428Z,99744.06
2022-10-18T02:31:30.830Z,99744.06
2022-10-18T02:31:45.341Z,99752.22
2022-10-18T02:32:18.556Z,99747.03
2022-10-18T02:32:41.552Z,99740.78
2022-10-18T02:32:58.035Z,99752.19
2022-10-18T02:33:54.836Z,99742.47
2022-10-18T02:34:30.693Z,99746.88
2022-10-18T02:35:36.874Z,99752.81
2022-10-18T02:35:52.877Z,99751.97
2022-10-18T02:36:27.266Z,99749.47
2022-10-18T02:36:46.777Z,99745.03
2022-10-18T02:37:00.581Z,99755.75
2022-10-18T02:37:13.819Z,99745.41
2022-10-18T02:37:33.055Z,99745.50
2022-10-18T02:37:46.079Z,99746.56
2022-10-18T02:37:59.524Z,99747.41
2022-10-18T02:38:21.105Z,99754.47
2022-10-18T02:38:35.184Z,99750.88
2022-10-18T02:38:49.059Z,99752.16
2022-10-18T02:39:04.598Z,99749.81
2022-10-18T02:39:36.054Z,99748.06
2022-10-18T02:39:50.991Z,99748.94
2022-10-18T02:40:26.202Z,99744.50
2022-10-18T02:41:00.081Z,99752.97
2022-10-18T02:41:13.525Z,99751.31
2022-10-18T02:41:27.743Z,99749.44
2022-10-18T02:41:49.104Z,99742.44
2022-10-18T02:42:06.921Z,99747.66
2022-10-18T02:42:37.579Z,99745.72
2022-10-18T02:42:56.842Z,99753.66
2022-10-18T02:43:10.156Z,99746.59
2022-10-18T02:43:26.989Z,99744.91
2022-10-18T02:43:40.131Z,99745.88
2022-10-18T02:43:53.596Z,99752.81
2022-10-18T02:44:27.397Z,99749.19
2022-10-18T02:44:41.350Z,99750.31
2022-10-18T02:44:54.738Z,99744.09
2022-10-18T02:45:08.318Z,99751.91
2022-10-18T02:45:21.940Z,99745.62
2022-10-18T02:45:34.982Z,99750.91
2022-10-18T02:45:48.005Z,99747.28
2022-10-18T02:46:20.984Z,99745.47
2022-10-18T02:46:38.129Z,99748.13
2022-10-18T02:46:51.505Z,99746.25
2022-10-18T02:47:04.697Z,99744.41
2022-10-18T02:47:17.661Z,99743.59
2022-10-18T02:47:31.842Z,99745.22
2022-10-18T02:47:45.775Z,99747.03
2022-10-18T02:47:58.781Z,99744.41
2022-10-18T02:48:31.680Z,99739.97
2022-10-18T02:48:45.567Z,99748.75
2022-10-18T02:48:58.918Z,99744.31
2022-10-18T02:49:12.998Z,99740.75
2022-10-18T02:49:26.052Z,99745.12
2022-10-18T02:49:59.002Z,99746.94
2022-10-18T02:50:12.640Z,99747.88
2022-10-18T02:50:46.463Z,99746.94
2022-10-18T02:50:59.775Z,99739.72
2022-10-18T02:51:23.307Z,99744.16
2022-10-18T02:51:37.387Z,99743.44
2022-10-18T02:51:51.353Z,99743.44
2022-10-18T02:52:04.506Z,99744.59
2022-10-18T02:52:17.860Z,99742.87
2022-10-18T02:52:31.098Z,99743.75
2022-10-18T02:52:44.371Z,99746.50
2022-10-18T02:52:58.334Z,99744.81
2022-10-18T02:53:16.635Z,99745.81
2022-10-18T02:53:29.437Z,99750.81
2022-10-18T02:53:42.504Z,99746.47
2022-10-18T02:53:55.731Z,99748.13
2022-10-18T02:54:09.149Z,99747.13
2022-10-18T02:54:23.663Z,99746.16
2022-10-18T02:54:36.504Z,99750.81
2022-10-18T02:54:49.338Z,99750.72
2022-10-18T02:55:02.163Z,99752.66
2022-10-18T02:55:15.304Z,99748.31
2022-10-18T02:56:01.248Z,99750.31
2022-10-18T02:56:34.662Z,99742.53
2022-10-18T02:56:49.676Z,99752.19
2022-10-18T02:57:03.376Z,99750.44
2022-10-18T02:57:16.551Z,99748.63
2022-10-18T02:57:31.539Z,99757.25
2022-10-18T02:57:44.800Z,99748.22
2022-10-18T02:57:59.529Z,99750.72
2022-10-18T02:58:32.425Z,99750.69
2022-10-18T02:59:07.362Z,99751.69
2022-10-18T02:59:21.280Z,99744.78
2022-10-18T02:59:34.595Z,99750.13
2022-10-18T02:59:51.376Z,99745.94
2022-10-18T03:00:06.072Z,99748.59
2022-10-18T03:00:26.848Z,99748.44
2022-10-18T03:00:44.225Z,99750.97
2022-10-18T03:00:58.928Z,99755.31
2022-10-18T03:01:11.933Z,99750.72
2022-10-18T03:01:44.703Z,99752.50
2022-10-18T03:01:58.893Z,99750.78
2022-10-18T03:02:12.171Z,99752.66
2022-10-18T03:02:44.974Z,99750.00
2022-10-18T03:03:00.014Z,99752.78
2022-10-18T03:03:17.490Z,99755.41
2022-10-18T03:03:30.732Z,99750.31
2022-10-18T03:03:48.072Z,99756.59
2022-10-18T03:04:01.454Z,99748.53
2022-10-18T03:04:14.798Z,99751.19
2022-10-18T03:04:30.348Z,99753.78
2022-10-18T03:05:03.197Z,99752.66
2022-10-18T03:05:20.689Z,99760.97
2022-10-18T03:05:34.554Z,99752.28
2022-10-18T03:05:51.731Z,99750.53
2022-10-18T03:06:05.722Z,99755.78
2022-10-18T03:06:18.828Z,99751.38
2022-10-18T03:06:41.299Z,99751.50
2022-10-18T03:06:54.287Z,99756.78
2022-10-18T03:07:07.114Z,99755.00
2022-10-18T03:07:39.900Z,99754.94
2022-10-18T03:07:56.895Z,99760.00
2022-10-18T03:08:09.950Z,99758.13
2022-10-18T03:08:42.734Z,99754.56
2022-10-18T03:09:15.501Z,99753.62
2022-10-18T03:09:28.849Z,99755.09
2022-10-18T03:09:43.853Z,99757.66
2022-10-18T03:09:57.186Z,99751.31
2022-10-18T03:10:10.133Z,99754.72
2022-10-18T03:10:25.058Z,99760.78
2022-10-18T03:10:37.842Z,99757.97
2022-10-18T03:10:52.529Z,99755.44
2022-10-18T03:11:25.945Z,99758.00
2022-10-18T03:11:38.924Z,99753.78
2022-10-18T03:12:11.670Z,99756.53
2022-10-18T03:12:24.885Z,99758.28
2022-10-18T03:12:37.986Z,99758.28
2022-10-18T03:12:50.784Z,99760.84
2022-10-18T03:13:04.063Z,99754.44
2022-10-18T03:13:20.883Z,99757.03
2022-10-18T03:14:19.015Z,99761.44
2022-10-18T03:14:35.649Z,99760.97
2022-10-18T03:14:50.413Z,99757.59
2022-10-18T03:15:03.548Z,99760.97
2022-10-18T03:15:25.289Z,99762.66
2022-10-18T03:15:48.391Z,99768.84
2022-10-18T03:53:42.328Z,99771.06
2022-10-18T03:53:55.477Z,99771.84
2022-10-18T03:54:08.713Z,99777.19
2022-10-18T03:54:22.422Z,99774.50
2022-10-18T03:54:35.530Z,99768.19
2022-10-18T03:55:10.413Z,99770.88
2022-10-18T03:55:23.491Z,99773.56
2022-10-18T03:55:40.961Z,99770.84
2022-10-18T03:55:58.182Z,99774.38
2022-10-18T03:56:10.975Z,99771.81
2022-10-18T03:56:23.921Z,99771.75
2022-10-18T03:56:40.288Z,99769.03
2022-10-18T03:56:54.994Z,99775.97
2022-10-18T03:57:07.791Z,99769.81
2022-10-18T03:57:40.539Z,99767.28
2022-10-18T03:57:58.205Z,99775.25
2022-10-18T03:58:11.018Z,99764.69
2022-10-18T03:58:44.658Z,99761.94
2022-10-18T03:58:58.293Z,99761.81
2022-10-18T03:59:11.159Z,99762.66
2022-10-18T03:59:32.104Z,99771.66
2022-10-18T04:00:05.308Z,99763.78
2022-10-18T04:00:18.310Z,99767.47
2022-10-18T04:00:53.408Z,99765.78
2022-10-18T04:01:09.550Z,99762.19
2022-10-18T04:01:22.445Z,99758.69
2022-10-18T04:01:55.209Z,99763.00
2022-10-18T04:02:08.446Z,99762.28
2022-10-18T04:02:58.902Z,99759.66
2022-10-18T04:03:11.778Z,99758.94
2022-10-18T04:03:25.703Z,99758.97
2022-10-18T04:03:38.498Z,99760.75
2022-10-18T04:03:51.880Z,99754.44
2022-10-18T04:04:16.497Z,99757.94
2022-10-18T04:04:31.599Z,99758.88
2022-10-18T04:05:04.472Z,99754.47
2022-10-18T04:05:17.413Z,99754.53
2022-10-18T04:05:31.296Z,99764.13
2022-10-18T04:05:45.777Z,99756.28
2022-10-18T04:06:00.716Z,99760.50
2022-10-18T04:06:15.859Z,99754.25
2022-10-18T04:06:29.071Z,99758.78
2022-10-18T04:06:45.859Z,99762.53
2022-10-18T04:06:59.040Z,99756.41
2022-10-18T04:07:11.856Z,99750.88
2022-10-18T04:07:44.600Z,99756.97
2022-10-18T04:07:58.509Z,99763.09
2022-10-18T04:08:20.588Z,99761.38
2022-10-18T04:08:33.573Z,99758.84
2022-10-18T04:08:47.506Z,99762.28
2022-10-18T04:09:16.081Z,99756.09
2022-10-18T04:09:29.324Z,99753.69
2022-10-18T04:09:42.101Z,99757.19
2022-10-18T04:09:54.901Z,99761.56
2022-10-18T04:10:08.196Z,99764.09
2022-10-18T04:10:21.396Z,99757.84
2022-10-18T04:10:34.192Z,99757.84
2022-10-18T04:10:52.597Z,99757.94
2022-10-18T04:11:08.422Z,99751.16
2022-10-18T04:11:21.414Z,99759.88
2022-10-18T04:11:54.158Z,99762.38
2022-10-18T04:12:25.398Z,99758.84
2022-10-18T04:13:21.306Z,99752.81
2022-10-18T04:13:35.458Z,99753.78
2022-10-18T04:14:07.106Z,99758.94
2022-10-18T04:14:21.577Z,99751.91
2022-10-18T04:14:36.305Z,99760.28
2022-10-18T04:14:49.377Z,99752.19
2022-10-18T04:15:06.820Z,99751.28
2022-10-18T04:15:21.907Z,99751.34
2022-10-18T04:15:36.625Z,99754.09
2022-10-18T04:15:50.435Z,99755.84
2022-10-18T04:16:03.439Z,99756.69
2022-10-18T04:16:54.011Z,99748.94
2022-10-18T04:17:10.871Z,99757.87
2022-10-18T04:17:24.256Z,99756.84
2022-10-18T04:17:37.233Z,99756.78
2022-10-18T04:18:10.123Z,99752.22
2022-10-18T04:18:23.484Z,99754.19
2022-10-18T04:18:36.805Z,99752.38
2022-10-18T04:18:53.871Z,99753.06
2022-10-18T04:19:07.139Z,99751.06
2022-10-18T04:19:19.947Z,99756.25
2022-10-18T04:19:33.599Z,99754.44
2022-10-18T04:19:50.659Z,99751.66
2022-10-18T04:20:25.680Z,99750.06
2022-10-18T04:20:38.764Z,99753.53
2022-10-18T04:20:51.796Z,99758.00
2022-10-18T04:21:05.624Z,99750.13
2022-10-18T04:21:38.382Z,99752.81
2022-10-18T04:21:53.522Z,99751.94
2022-10-18T04:22:14.482Z,99744.94
2022-10-18T04:22:48.460Z,99746.66
2022-10-18T04:23:01.898Z,99754.34
2022-10-18T04:23:14.981Z,99751.03
2022-10-18T04:23:48.998Z,99753.66
2022-10-18T04:24:21.746Z,99751.13
2022-10-18T04:24:34.992Z,99750.56
2022-10-18T04:25:18.223Z,99752.81
2022-10-18T04:25:31.445Z,99744.00
2022-10-18T04:25:44.529Z,99750.16
2022-10-18T04:25:57.380Z,99746.50
2022-10-18T04:26:11.354Z,99754.34
2022-10-18T04:26:24.363Z,99749.94
2022-10-18T04:26:37.303Z,99743.09
2022-10-18T04:26:52.164Z,99748.34
2022-10-18T04:27:10.155Z,99750.16
2022-10-18T04:27:24.395Z,99745.97
2022-10-18T04:27:37.789Z,99748.53
2022-10-18T04:27:52.781Z,99747.53
2022-10-18T04:28:05.596Z,99744.75
2022-10-18T04:28:20.404Z,99751.94
2022-10-18T04:28:34.022Z,99748.56
2022-10-18T04:28:46.921Z,99742.37
2022-10-18T04:29:04.180Z,99748.56
2022-10-18T04:29:17.572Z,99744.47
2022-10-18T04:29:30.412Z,99746.19
2022-10-18T04:29:43.435Z,99744.38
2022-10-18T04:29:56.836Z,99742.44
2022-10-18T04:30:10.536Z,99748.59
2022-10-18T04:30:27.299Z,99749.41
2022-10-18T04:30:40.376Z,99744.91
2022-10-18T04:30:55.280Z,99744.94
2022-10-18T04:31:10.968Z,99741.78
2022-10-18T04:31:23.946Z,99748.25
2022-10-18T04:31:41.365Z,99745.75
2022-10-18T04:31:54.566Z,99744.72
2022-10-18T04:32:08.214Z,99749.91
2022-10-18T04:32:21.182Z,99744.75
2022-10-18T04:32:52.452Z,99743.03
2022-10-18T04:33:05.683Z,99748.09
2022-10-18T04:33:19.996Z,99748.03
2022-10-18T04:33:54.037Z,99749.81
2022-10-18T04:34:26.941Z,99745.44
2022-10-18T04:34:39.989Z,99745.34
2022-10-18T04:34:53.235Z,99745.28
2022-10-18T04:35:06.525Z,99742.72
2022-10-18T04:35:36.903Z,99743.72
2022-10-18T04:35:53.193Z,99746.59
2022-10-18T04:36:06.346Z,99747.41
2022-10-18T04:36:20.288Z,99744.84
2022-10-18T04:36:33.876Z,99745.66
2022-10-18T04:36:46.881Z,99741.19
2022-10-18T04:37:01.568Z,99753.66
2022-10-18T04:37:14.851Z,99742.25
2022-10-18T04:37:28.172Z,99746.72
2022-10-18T04:37:41.551Z,99742.34
2022-10-18T04:37:55.528Z,99744.09
2022-10-18T04:38:09.264Z,99745.75
2022-10-18T04:38:42.176Z,99743.03
2022-10-18T04:38:55.359Z,99746.50
2022-10-18T04:39:08.217Z,99742.06
2022-10-18T04:39:22.162Z,99747.19
2022-10-18T04:39:35.292Z,99747.16
2022-10-18T04:53:52.793Z,99728.19
2022-10-18T04:54:28.515Z,99727.06
2022-10-18T04:54:42.063Z,99727.16
2022-10-18T04:54:54.968Z,99728.91
2022-10-18T04:55:10.254Z,99723.50
2022-10-18T04:55:23.564Z,99732.31
2022-10-18T04:55:36.457Z,99729.50
2022-10-18T04:55:50.407Z,99729.56
2022-10-18T05:19:58.405Z,99728.78
2022-10-18T05:20:11.990Z,99714.00
2022-10-18T05:20:44.700Z,99721.06
2022-10-18T05:20:58.235Z,99716.81
2022-10-18T05:21:12.554Z,99716.81
2022-10-18T05:21:26.566Z,99718.59
2022-10-18T05:21:39.601Z,99716.91
2022-10-18T05:21:53.036Z,99720.41
2022-10-18T05:22:06.029Z,99720.50
2022-10-18T05:22:19.397Z,99716.09
2022-10-18T05:22:32.636Z,99725.94
2022-10-18T05:22:50.315Z,99721.53
2022-10-18T05:23:09.840Z,99717.28
2022-10-18T05:23:42.584Z,99722.75
2022-10-18T05:23:56.776Z,99724.84
2022-10-18T05:24:27.706Z,99723.06
2022-10-18T05:24:40.717Z,99731.19
2022-10-18T05:24:54.102Z,99729.38
2022-10-18T05:25:07.717Z,99727.69
2022-10-18T05:25:21.014Z,99737.47
2022-10-18T05:25:34.339Z,99731.09
2022-10-18T05:26:07.264Z,99729.53
2022-10-18T05:26:42.904Z,99730.16
2022-10-18T05:26:56.458Z,99724.75
2022-10-18T05:27:11.265Z,99728.16
2022-10-18T05:27:24.285Z,99726.37
2022-10-18T05:27:41.067Z,99718.66
2022-10-18T05:27:54.054Z,99720.44
2022-10-18T05:28:34.561Z,99728.38
2022-10-18T05:28:42.155Z,99726.56
2022-10-18T05:28:56.182Z,99722.09
2022-10-18T05:29:09.215Z,99725.72
2022-10-18T05:29:24.906Z,99728.31
2022-10-18T05:29:37.820Z,99733.66
2022-10-18T05:29:50.818Z,99729.22
2022-10-18T05:30:08.259Z,99727.63
2022-10-18T05:30:21.671Z,99733.03
2022-10-18T05:30:37.739Z,99726.81
2022-10-18T05:30:52.713Z,99728.47
2022-10-18T05:31:06.689Z,99731.09
2022-10-18T05:31:19.505Z,99733.09
2022-10-18T05:36:31.450Z,99730.78
2022-10-18T05:36:46.728Z,99729.22
2022-10-18T05:37:00.819Z,99728.19
2022-10-18T05:37:33.722Z,99729.16
2022-10-18T05:37:46.602Z,99729.22
2022-10-18T05:37:59.636Z,99726.47
2022-10-18T05:38:13.119Z,99728.44
2022-10-18T05:38:45.648Z,99728.34
2022-10-18T05:39:01.008Z,99729.97
2022-10-18T05:39:17.238Z,99729.75
2022-10-18T05:39:50.034Z,99728.88
2022-10-18T05:40:03.656Z,99732.69
2022-10-18T05:40:38.801Z,99732.66
2022-10-18T05:40:54.029Z,99730.78
2022-10-18T05:41:26.756Z,99736.88
2022-10-18T05:41:41.482Z,99733.50
2022-10-18T05:41:54.516Z,99727.34
2022-10-18T05:42:08.401Z,99725.50
2022-10-18T05:42:21.462Z,99736.13
2022-10-18T05:42:34.456Z,99729.19
2022-10-18T05:43:07.455Z,99730.97
2022-10-18T05:43:20.489Z,99726.56
2022-10-18T05:43:34.143Z,99733.75
2022-10-18T05:43:55.479Z,99731.06
2022-10-18T05:44:08.533Z,99727.50
2022-10-18T05:44:25.873Z,99727.41
2022-10-18T05:44:38.690Z,99730.78
2022-10-18T05:44:52.066Z,99733.25
2022-10-18T05:45:05.771Z,99728.00
2022-10-18T05:45:18.584Z,99728.84
2022-10-18T05:45:51.308Z,99738.59
2022-10-18T05:46:09.158Z,99727.19
2022-10-18T05:46:33.588Z,99731.63
2022-10-18T05:46:46.904Z,99732.47
2022-10-18T05:47:03.872Z,99733.44
2022-10-18T05:47:16.806Z,99726.34
2022-10-18T05:47:29.678Z,99735.91
2022-10-18T05:47:43.002Z,99730.62
2022-10-18T05:47:56.300Z,99733.22
2022-10-18T05:48:09.652Z,99732.22
2022-10-18T05:48:44.706Z,99738.28
2022-10-18T05:48:59.580Z,99726.78
2022-10-18T05:49:12.895Z,99735.66
2022-10-18T05:49:26.175Z,99724.94
2022-10-18T05:49:48.010Z,99731.09
2022-10-18T05:50:02.152Z,99735.47
2022-10-18T05:50:15.587Z,99727.63
2022-10-18T05:50:28.563Z,99731.09
2022-10-18T06:12:20.216Z,99736.94
2022-10-18T06:12:35.148Z,99733.53
2022-10-18T06:12:51.933Z,99738.78
2022-10-18T06:13:07.515Z,99746.00
2022-10-18T06:13:20.522Z,99745.09
2022-10-18T06:13:53.308Z,99737.97
2022-10-18T06:14:07.758Z,99748.34
2022-10-18T06:14:20.772Z,99739.66
2022-10-18T06:14:33.765Z,99744.94
2022-10-18T06:14:54.564Z,99738.75
2022-10-18T06:15:10.095Z,99746.72
2022-10-18T06:15:23.396Z,99740.44
2022-10-18T06:15:45.938Z,99743.09
2022-10-18T06:15:58.789Z,99742.16
2022-10-18T06:16:11.988Z,99745.62
2022-10-18T06:16:31.267Z,99745.53
2022-10-18T06:16:45.520Z,99747.25
2022-10-18T06:16:58.828Z,99747.34
2022-10-18T06:17:12.012Z,99745.56
2022-10-18T06:17:25.938Z,99752.62
2022-10-18T06:17:40.751Z,99744.56
2022-10-18T06:17:53.935Z,99739.91
2022-10-18T06:18:06.749Z,99743.38
2022-10-18T06:18:19.585Z,99745.00
2022-10-18T06:18:34.249Z,99747.56
2022-10-18T06:18:50.952Z,99756.44
2022-10-18T06:19:47.029Z,99750.31
2022-10-18T06:20:00.342Z,99738.75
2022-10-18T06:20:14.231Z,99745.91
2022-10-18T06:20:27.118Z,99745.81
2022-10-18T06:20:42.368Z,99745.75
2022-10-18T06:20:59.330Z,99746.62
2022-10-18T06:21:33.156Z,99749.19
2022-10-18T06:21:45.922Z,99749.16
2022-10-18T06:22:17.149Z,99749.91
2022-10-18T06:22:30.350Z,99748.16
2022-10-18T06:22:47.855Z,99746.97
2022-10-18T06:23:00.677Z,99750.44
2022-10-18T06:23:33.420Z,99751.22
2022-10-18T06:23:54.032Z,99744.06
2022-10-18T06:24:06.901Z,99745.78
2022-10-18T06:24:40.912Z,99743.94
2022-10-18T06:24:57.194Z,99748.09
2022-10-18T06:25:14.509Z,99749.87
2022-10-18T06:25:27.441Z,99743.53
2022-10-18T06:25:41.162Z,99750.66
2022-10-18T06:25:54.136Z,99751.50
2022-10-18T06:26:11.685Z,99752.34
2022-10-18T06:26:45.003Z,99740.75
2022-10-18T06:26:57.936Z,99747.75
2022-10-18T06:27:10.808Z,99744.22
2022-10-18T06:27:23.721Z,99747.78
2022-10-18T06:27:37.432Z,99748.84
2022-10-18T06:28:12.170Z,99742.66
2022-10-18T06:28:25.955Z,99745.22
2022-10-18T06:28:39.037Z,99746.09
2022-10-18T06:28:52.394Z,99749.63
2022-10-18T06:29:05.362Z,99750.53
2022-10-18T06:29:19.321Z,99751.50
2022-10-18T06:29:32.211Z,99748.84
2022-10-18T06:29:45.494Z,99748.78
2022-10-18T06:30:15.591Z,99754.16
2022-10-18T06:30:29.137Z,99745.31
2022-10-18T06:30:42.280Z,99749.94
2022-10-18T06:30:57.013Z,99745.44
2022-10-18T06:31:11.087Z,99754.16
2022-10-18T06:59:31.586Z,99754.66
2022-10-18T06:59:46.966Z,99757.37
2022-10-18T07:00:00.270Z,99756.31
2022-10-18T07:00:14.012Z,99758.94
2022-10-18T07:00:47.600Z,99759.66
2022-10-18T07:01:04.991Z,99760.53
2022-10-18T07:01:25.864Z,99754.25
2022-10-18T07:01:58.559Z,99756.19
2022-10-18T07:02:27.644Z,99758.84
2022-10-18T07:02:45.535Z,99761.50
2022-10-18T07:02:58.924Z,99755.22
2022-10-18T07:03:12.333Z,99759.78
2022-10-18T07:03:46.261Z,99755.22
2022-10-18T07:03:59.991Z,99764.16
2022-10-18T07:04:13.985Z,99758.75
2022-10-18T07:04:32.952Z,99759.56
2022-10-18T07:04:45.929Z,99755.16
2022-10-18T07:04:58.750Z,99756.03
2022-10-18T07:05:11.627Z,99758.59
2022-10-18T07:05:25.080Z,99754.97
2022-10-18T07:05:40.137Z,99755.81
2022-10-18T07:05:54.902Z,99758.78
2022-10-18T07:06:11.003Z,99761.41
2022-10-18T07:06:40.831Z,99747.03
2022-10-18T07:06:54.257Z,99756.63
2022-10-18T07:07:11.032Z,99751.31
2022-10-18T07:07:24.877Z,99751.97
2022-10-18T07:07:41.024Z,99753.16
2022-10-18T07:07:56.636Z,99747.81
2022-10-18T07:08:25.549Z,99749.72
2022-10-18T07:08:48.905Z,99749.81
2022-10-18T07:09:03.901Z,99754.06
2022-10-18T07:09:47.871Z,99759.22
2022-10-18T07:10:02.562Z,99753.00
2022-10-18T07:10:21.370Z,99752.91
2022-10-18T07:10:35.639Z,99749.37
2022-10-18T07:10:53.123Z,99753.19
2022-10-18T07:11:06.647Z,99751.56
2022-10-18T07:11:21.849Z,99754.06
2022-10-18T07:11:42.126Z,99745.94
2022-10-18T07:11:55.189Z,99754.16